Time;durP1;ratioP1;P1;durP2;ratioP2;P2;SDS_P1;SDS_P2;PMS_P1;PMS_P2;Temp;Humidity;BMP_temperature;BMP_pressure;BME280_temperature;BME280_humidity;BME280_pressure;Samples;Min_cycle;Max_cycle;Signal;HPM_P1;HPM_P2
2024/03/13 00:00:57;;;;;;;12.90;5.63;;;9.30;99.90;;;;;;5011250;28;20128;-71
2024/03/13 00:03:23;;;;;;;15.45;7.32;;;9.30;99.90;;;;;;5007887;28;20121;-71
2024/03/13 00:05:50;;;;;;;14.60;6.70;;;9.30;99.90;;;;;;5006996;28;20040;-71
2024/03/13 00:08:15;;;;;;;12.75;6.07;;;9.30;99.90;;;;;;4989326;28;20041;-72
2024/03/13 00:10:41;;;;;;;15.23;6.57;;;9.30;99.90;;;;;;5009160;28;20038;-70
2024/03/13 00:13:07;;;;;;;16.05;6.63;;;9.30;99.90;;;;;;4991828;28;20037;-71
2024/03/13 00:15:35;;;;;;;12.15;5.63;;;9.30;99.90;;;;;;5007535;28;20054;-70
2024/03/13 00:18:04;;;;;;;13.40;6.47;;;9.40;99.90;;;;;;5015364;28;20037;-67
2024/03/13 00:20:32;;;;;;;13.70;6.03;;;9.40;99.90;;;;;;5010787;28;20035;-71
2024/03/13 00:22:57;;;;;;;14.65;6.55;;;9.30;99.90;;;;;;4994297;28;20033;-71
2024/03/13 00:25:23;;;;;;;12.88;5.45;;;9.40;99.90;;;;;;5004698;28;20522;-72
2024/03/13 00:27:49;;;;;;;14.20;6.65;;;9.30;99.90;;;;;;5011243;28;20521;-71
2024/03/13 00:30:15;;;;;;;13.25;6.03;;;9.40;99.90;;;;;;5007847;28;20037;-71
2024/03/13 00:32:42;;;;;;;13.95;6.30;;;9.40;99.90;;;;;;5012864;28;20511;-71
2024/03/13 00:35:08;;;;;;;14.98;6.18;;;9.40;99.90;;;;;;5009401;28;20056;-72
2024/03/13 00:37:34;;;;;;;12.90;5.40;;;9.40;99.90;;;;;;5006019;28;20038;-71
2024/03/13 00:40:00;;;;;;;16.60;6.28;;;9.40;99.90;;;;;;5006240;28;20033;-71
2024/03/13 00:42:26;;;;;;;14.88;6.32;;;9.40;99.90;;;;;;5009036;28;20045;-71
2024/03/13 00:44:53;;;;;;;13.52;6.18;;;9.40;99.90;;;;;;5014372;28;20026;-71
2024/03/13 00:47:21;;;;;;;16.20;6.47;;;9.40;99.90;;;;;;5007233;28;20037;-71
2024/03/13 00:49:47;;;;;;;17.90;6.70;;;9.50;99.90;;;;;;4994310;28;20061;-70
2024/03/13 00:52:12;;;;;;;22.92;8.20;;;9.50;99.90;;;;;;4990909;28;20066;-70
2024/03/13 00:54:46;;;;;;;23.30;7.70;;;9.40;99.90;;;;;;5009365;28;20046;-70
2024/03/13 00:57:12;;;;;;;33.50;8.15;;;9.50;99.90;;;;;;5005411;28;20038;-71
2024/03/13 00:59:39;;;;;;;24.75;8.50;;;9.50;99.90;;;;;;5007577;28;20406;-71
2024/03/13 01:02:08;;;;;;;24.63;8.93;;;9.50;99.90;;;;;;5011717;28;20108;-72
2024/03/13 01:04:34;;;;;;;31.98;9.98;;;9.50;99.90;;;;;;5008203;28;20041;-71
2024/03/13 01:06:59;;;;;;;44.90;10.50;;;9.50;99.90;;;;;;5012034;28;20037;-71
2024/03/13 01:09:26;;;;;;;54.88;10.65;;;9.60;99.90;;;;;;4989252;28;20042;-70
2024/03/13 01:11:53;;;;;;;42.53;11.05;;;9.60;99.90;;;;;;5011908;28;20033;-71
2024/03/13 01:14:21;;;;;;;43.45;9.90;;;9.60;99.90;;;;;;5007166;28;20030;-70
2024/03/13 01:16:53;;;;;;;53.55;11.40;;;9.60;99.90;;;;;;5014227;28;20029;-72
2024/03/13 01:19:22;;;;;;;54.25;13.13;;;9.60;99.90;;;;;;4990172;28;20080;-70
2024/03/13 01:21:53;;;;;;;39.78;10.13;;;9.60;99.90;;;;;;5013876;28;20025;-71
2024/03/13 01:24:19;;;;;;;53.13;11.88;;;9.70;99.90;;;;;;5008114;28;20117;-70
2024/03/13 01:26:45;;;;;;;53.25;11.98;;;9.70;99.90;;;;;;5010638;28;20518;-72
2024/03/13 01:29:11;;;;;;;43.58;11.00;;;9.70;99.90;;;;;;5009435;28;20041;-71
2024/03/13 01:31:37;;;;;;;54.10;11.35;;;9.70;99.90;;;;;;5009008;28;20040;-70
2024/03/13 01:34:04;;;;;;;58.83;13.00;;;9.80;99.90;;;;;;5011726;28;20034;-71
2024/03/13 01:39:17;;;;;;;49.65;12.20;;;9.80;99.90;;;;;;5007884;28;20040;-71
2024/03/13 01:55:36;;;;;;;51.05;11.20;;;9.90;99.90;;;;;;5012703;28;20107;-72
2024/03/13 02:03:17;;;;;;;54.38;11.18;;;10.00;99.90;;;;;;5008606;28;20061;-71
2024/03/13 02:05:43;;;;;;;45.47;10.27;;;10.00;99.90;;;;;;5013722;28;20029;-71
2024/03/13 02:08:14;;;;;;;50.80;9.73;;;10.00;99.90;;;;;;5011754;28;20041;-72
2024/03/13 02:10:40;;;;;;;;;;;10.00;99.90;;;;;;5006117;28;20038;-70
2024/03/13 02:13:10;;;;;;;49.65;11.63;;;10.10;99.90;;;;;;5011826;28;19971;-72
2024/03/13 02:15:37;;;;;;;47.45;9.65;;;10.10;99.90;;;;;;5013603;28;20038;-71
2024/03/13 02:18:16;;;;;;;47.35;10.75;;;10.10;99.90;;;;;;5004260;28;20410;-69
2024/03/13 02:20:43;;;;;;;44.17;11.10;;;10.10;99.90;;;;;;5015277;28;20483;-72
2024/03/13 02:23:08;;;;;;;39.00;10.55;;;10.10;99.90;;;;;;4994857;28;20541;-71
2024/03/13 02:25:34;;;;;;;46.53;10.32;;;10.10;99.90;;;;;;5019028;28;20038;-71
2024/03/13 02:28:03;;;;;;;40.15;8.93;;;10.20;99.90;;;;;;5018799;28;20874;-70
2024/03/13 02:30:29;;;;;;;36.78;9.82;;;10.20;99.90;;;;;;5019087;28;20985;-71
2024/03/13 02:32:57;;;;;;;34.75;8.98;;;10.20;99.90;;;;;;5009859;28;20042;-72
2024/03/13 02:35:22;;;;;;;26.92;9.43;;;10.20;99.90;;;;;;5023554;28;20037;-70
2024/03/13 02:37:48;;;;;;;34.45;10.10;;;10.20;99.90;;;;;;5020115;28;20037;-71
2024/03/13 02:40:16;;;;;;;41.42;9.45;;;10.20;99.90;;;;;;5007356;28;20030;-70
2024/03/13 02:42:46;;;;;;;41.55;10.52;;;10.20;99.90;;;;;;5020469;28;20029;-71
2024/03/13 02:45:13;;;;;;;31.38;8.90;;;10.20;99.90;;;;;;5013343;28;20025;-70
2024/03/13 02:47:40;;;;;;;36.42;10.23;;;10.20;99.90;;;;;;5019053;28;20577;-70
2024/03/13 02:50:07;;;;;;;28.83;9.55;;;10.20;99.90;;;;;;5016173;28;20697;-71
2024/03/13 02:52:32;;;;;;;28.85;8.65;;;10.20;99.90;;;;;;5017920;28;20034;-71
2024/03/13 02:54:58;;;;;;;36.92;9.85;;;10.20;99.90;;;;;;5020223;28;20501;-71
2024/03/13 02:57:25;;;;;;;25.67;8.45;;;10.30;99.90;;;;;;4998929;28;20041;-72
2024/03/13 02:59:50;;;;;;;25.75;8.77;;;10.30;99.90;;;;;;5019912;28;20033;-72
2024/03/13 03:02:16;;;;;;;26.52;8.90;;;10.30;99.90;;;;;;5016757;28;20065;-72
2024/03/13 03:04:42;;;;;;;29.25;9.13;;;10.30;99.90;;;;;;5001229;28;20078;-72
2024/03/13 03:07:07;;;;;;;34.70;8.77;;;10.30;99.90;;;;;;5017538;28;20061;-72
2024/03/13 03:09:33;;;;;;;29.58;10.02;;;10.30;99.90;;;;;;5017973;28;20104;-72
2024/03/13 03:11:59;;;;;;;32.13;9.48;;;10.30;99.90;;;;;;5011811;28;20034;-73
2024/03/13 03:14:24;;;;;;;31.55;10.13;;;10.30;99.90;;;;;;5015971;28;20026;-72
2024/03/13 03:16:50;;;;;;;30.80;9.63;;;10.40;99.90;;;;;;5018944;28;20160;-71
2024/03/13 03:19:23;;;;;;;28.25;9.02;;;10.30;99.90;;;;;;5015650;28;20573;-71
2024/03/13 03:21:48;;;;;;;32.10;9.07;;;10.40;99.90;;;;;;5008682;28;20029;-72
2024/03/13 03:24:14;;;;;;;32.17;9.63;;;10.30;99.90;;;;;;4988673;28;20121;-72
2024/03/13 03:26:39;;;;;;;32.33;10.25;;;10.30;99.90;;;;;;5009826;28;20085;-71
2024/03/13 03:29:05;;;;;;;25.00;9.25;;;10.40;99.90;;;;;;5011493;28;20038;-71
2024/03/13 03:31:31;;;;;;;27.02;8.35;;;10.40;99.90;;;;;;4990525;28;20071;-71
2024/03/13 03:33:56;;;;;;;27.00;8.98;;;10.40;99.90;;;;;;5010281;28;20137;-71
2024/03/13 03:36:22;;;;;;;28.35;8.63;;;10.40;99.90;;;;;;5010922;28;20109;-70
2024/03/13 03:38:47;;;;;;;34.30;8.63;;;10.40;99.90;;;;;;4981914;28;20042;-72
2024/03/13 03:41:13;;;;;;;25.83;7.90;;;10.40;99.90;;;;;;5012981;28;20040;-71
2024/03/13 03:43:39;;;;;;;27.98;7.78;;;10.40;99.90;;;;;;4974614;28;20043;-71
2024/03/13 03:46:04;;;;;;;29.15;7.85;;;10.40;99.90;;;;;;4997720;28;20034;-72
2024/03/13 03:48:30;;;;;;;28.55;7.63;;;10.40;99.90;;;;;;5008667;28;20546;-71
2024/03/13 03:50:55;;;;;;;21.73;6.97;;;10.40;99.90;;;;;;5015312;28;20616;-72
2024/03/13 03:53:21;;;;;;;21.25;7.20;;;10.30;99.90;;;;;;5011271;28;20492;-71
2024/03/13 03:55:46;;;;;;;27.30;8.52;;;10.30;99.90;;;;;;5006436;28;20048;-72
2024/03/13 03:58:12;;;;;;;21.17;6.68;;;10.30;99.90;;;;;;5012645;28;20029;-71
2024/03/13 04:00:38;;;;;;;26.95;6.50;;;10.40;99.90;;;;;;5007533;28;20113;-71
2024/03/13 04:03:04;;;;;;;26.42;6.57;;;10.40;99.90;;;;;;5008278;28;20566;-69
2024/03/13 04:05:31;;;;;;;28.80;7.32;;;10.40;99.90;;;;;;4990593;28;20038;-71
2024/03/13 04:07:58;;;;;;;22.00;7.85;;;10.40;99.90;;;;;;5007371;28;20388;-70
2024/03/13 04:10:24;;;;;;;20.92;7.57;;;10.40;99.90;;;;;;5010511;28;20476;-71
2024/03/13 04:12:50;;;;;;;35.88;8.90;;;10.30;99.90;;;;;;5006554;28;20146;-71
2024/03/13 04:15:16;;;;;;;28.20;7.30;;;10.30;99.90;;;;;;4995758;28;20033;-72
2024/03/13 04:17:41;;;;;;;28.85;8.68;;;10.30;99.90;;;;;;5001675;28;20600;-71
2024/03/13 04:20:17;;;;;;;28.83;7.13;;;10.30;99.90;;;;;;4996158;28;20508;-72
2024/03/13 04:22:43;;;;;;;27.27;8.70;;;10.30;99.90;;;;;;5013392;28;20046;-71
2024/03/13 04:25:08;;;;;;;25.55;7.43;;;10.30;99.90;;;;;;4998453;28;20033;-71
2024/03/13 04:27:34;;;;;;;26.25;7.78;;;10.30;99.90;;;;;;5007993;28;20117;-71
2024/03/13 04:30:00;;;;;;;27.55;7.57;;;10.30;99.90;;;;;;5013177;28;20468;-72
2024/03/13 04:32:25;;;;;;;26.65;7.97;;;10.30;99.90;;;;;;5008580;28;20033;-71
2024/03/13 04:34:51;;;;;;;26.05;8.05;;;10.30;99.90;;;;;;5010128;28;20037;-71
2024/03/13 04:37:16;;;;;;;30.88;9.63;;;10.30;99.90;;;;;;5010980;28;20025;-72
2024/03/13 04:39:42;;;;;;;25.65;8.05;;;10.40;99.90;;;;;;5010526;28;20048;-72
2024/03/13 04:42:08;;;;;;;31.13;9.23;;;10.30;99.90;;;;;;4996609;28;20029;-70
2024/03/13 04:44:34;;;;;;;33.90;9.27;;;10.30;99.90;;;;;;5010556;28;20120;-71
2024/03/13 04:46:59;;;;;;;26.95;9.82;;;10.40;99.90;;;;;;5009264;28;20645;-70
2024/03/13 04:49:25;;;;;;;29.60;9.20;;;10.40;99.90;;;;;;5012086;28;20436;-71
2024/03/13 04:51:50;;;;;;;26.77;9.18;;;10.40;99.90;;;;;;5010344;28;20113;-71
2024/03/13 04:54:16;;;;;;;32.08;9.82;;;10.40;99.90;;;;;;5015056;28;20041;-71
2024/03/13 04:56:42;;;;;;;29.88;9.18;;;10.40;99.90;;;;;;5000826;28;20044;-70
2024/03/13 04:59:07;;;;;;;28.45;8.90;;;10.40;99.90;;;;;;5011214;28;20047;-71
2024/03/13 05:01:33;;;;;;;31.52;10.77;;;10.30;99.90;;;;;;4995734;28;20040;-70
2024/03/13 05:03:59;;;;;;;34.03;9.50;;;10.40;99.90;;;;;;4991537;28;20040;-71
2024/03/13 05:06:24;;;;;;;28.38;9.85;;;10.40;99.90;;;;;;5011000;28;20037;-71
2024/03/13 05:08:50;;;;;;;31.45;9.95;;;10.30;99.90;;;;;;5012623;28;20034;-70
2024/03/13 05:11:17;;;;;;;39.40;9.18;;;10.30;99.90;;;;;;5009939;28;20384;-71
2024/03/13 05:13:45;;;;;;;28.10;8.80;;;10.40;99.90;;;;;;5010016;28;20049;-71
2024/03/13 05:16:11;;;;;;;31.20;7.63;;;10.30;99.90;;;;;;5012261;28;20034;-70
2024/03/13 05:18:37;;;;;;;32.45;9.43;;;10.30;99.90;;;;;;4991166;28;20104;-70
2024/03/13 05:21:03;;;;;;;25.63;8.23;;;10.30;99.90;;;;;;5013773;28;20458;-70
2024/03/13 05:23:29;;;;;;;20.67;7.50;;;10.30;99.90;;;;;;5011964;28;20030;-69
2024/03/13 05:25:55;;;;;;;28.77;7.93;;;10.30;99.90;;;;;;5010950;28;20057;-71
2024/03/13 05:28:25;;;;;;;24.50;8.40;;;10.30;99.90;;;;;;5011477;28;20057;-71
2024/03/13 05:30:50;;;;;;;25.15;7.85;;;10.30;99.90;;;;;;5013501;28;20510;-68
2024/03/13 05:33:16;;;;;;;21.95;7.55;;;10.30;99.90;;;;;;5012855;28;20038;-71
2024/03/13 05:35:42;;;;;;;25.20;8.57;;;10.30;99.90;;;;;;4999005;28;20069;-70
2024/03/13 05:38:08;;;;;;;30.48;8.20;;;10.30;99.90;;;;;;5004280;28;20057;-70
2024/03/13 05:40:34;;;;;;;22.50;8.00;;;10.30;99.90;;;;;;5007421;28;20137;-70
2024/03/13 05:42:59;;;;;;;31.50;10.30;;;10.40;99.90;;;;;;4992741;28;20120;-72
2024/03/13 05:45:25;;;;;;;30.98;7.53;;;10.30;99.90;;;;;;4993836;28;20034;-71
2024/03/13 05:47:52;;;;;;;27.08;7.50;;;10.30;99.90;;;;;;4999680;28;20031;-72
2024/03/13 05:50:18;;;;;;;30.52;7.53;;;10.30;99.90;;;;;;5012795;28;20429;-68
2024/03/13 05:52:47;;;;;;;30.55;7.45;;;10.30;99.90;;;;;;4992073;28;20034;-72
2024/03/13 05:55:14;;;;;;;30.02;6.97;;;10.30;99.90;;;;;;5009739;28;20122;-72
2024/03/13 05:57:40;;;;;;;27.05;7.07;;;10.30;99.90;;;;;;5007291;28;20125;-71
2024/03/13 06:00:12;;;;;;;38.60;8.15;;;10.30;99.90;;;;;;5007870;28;20129;-71
2024/03/13 06:02:41;;;;;;;27.55;6.63;;;10.20;99.90;;;;;;5002378;28;20030;-72
2024/03/13 06:05:14;;;;;;;30.15;7.47;;;10.30;99.90;;;;;;5003207;28;20030;-71
2024/03/13 06:07:40;;;;;;;31.15;5.95;;;10.30;99.90;;;;;;5003507;28;20121;-71
2024/03/13 06:10:08;;;;;;;23.42;5.97;;;10.20;99.90;;;;;;5009854;28;20505;-71
2024/03/13 06:12:34;;;;;;;34.47;6.88;;;10.30;99.90;;;;;;5006096;28;20030;-71
2024/03/13 06:15:06;;;;;;;17.88;5.15;;;10.30;99.90;;;;;;5002567;28;20026;-72
2024/03/13 06:17:33;;;;;;;18.48;5.10;;;10.20;99.90;;;;;;5002863;28;20047;-71
2024/03/13 06:19:59;;;;;;;28.80;6.22;;;10.20;99.90;;;;;;5004951;28;20113;-72
2024/03/13 06:22:24;;;;;;;15.43;4.45;;;10.20;99.90;;;;;;4985707;28;20102;-72
2024/03/13 06:24:50;;;;;;;21.92;4.20;;;10.20;99.90;;;;;;4986248;28;20103;-70
2024/03/13 06:27:16;;;;;;;22.73;5.85;;;10.20;99.90;;;;;;5003084;28;20036;-71
2024/03/13 06:29:59;;;;;;;27.73;5.38;;;10.20;99.90;;;;;;5007556;28;20043;-72
2024/03/13 06:32:30;;;;;;;22.77;4.47;;;10.30;99.90;;;;;;4998222;28;20044;-72
2024/03/13 06:34:57;;;;;;;26.90;4.43;;;10.30;99.90;;;;;;5007723;28;20041;-70
2024/03/13 06:37:27;;;;;;;29.60;4.40;;;10.30;99.90;;;;;;5005422;28;20034;-69
2024/03/13 06:39:53;;;;;;;19.30;4.60;;;10.30;99.90;;;;;;4985363;28;20512;-72
2024/03/13 06:42:19;;;;;;;24.17;4.45;;;10.30;99.90;;;;;;4986779;28;20030;-71
2024/03/13 06:44:45;;;;;;;25.10;4.40;;;10.30;99.90;;;;;;5004034;28;20038;-71
2024/03/13 06:47:11;;;;;;;21.05;3.65;;;10.30;99.90;;;;;;5002200;28;20037;-71
2024/03/13 06:49:39;;;;;;;23.65;5.25;;;10.40;99.90;;;;;;4984754;28;20050;-71
2024/03/13 06:52:06;;;;;;;25.05;3.58;;;10.30;99.90;;;;;;4999195;28;20026;-72
2024/03/13 06:54:32;;;;;;;16.00;3.35;;;10.30;99.90;;;;;;5001414;28;20045;-71
2024/03/13 06:56:57;;;;;;;22.00;3.70;;;10.30;99.90;;;;;;5001000;28;20038;-71
2024/03/13 06:59:23;;;;;;;21.70;5.03;;;10.30;99.90;;;;;;5000886;28;20129;-72
2024/03/13 07:01:51;;;;;;;26.20;5.72;;;10.30;99.90;;;;;;4998716;28;20104;-70
2024/03/13 07:04:18;;;;;;;21.40;4.03;;;10.40;99.90;;;;;;5002526;28;20033;-72
2024/03/13 07:06:46;;;;;;;16.73;4.40;;;10.40;99.90;;;;;;5002871;28;20503;-71
2024/03/13 07:09:11;;;;;;;28.60;5.15;;;10.40;99.90;;;;;;4984912;28;20124;-72
2024/03/13 07:11:37;;;;;;;21.48;4.38;;;10.40;99.90;;;;;;5003470;28;20164;-71
2024/03/13 07:14:02;;;;;;;16.40;3.63;;;10.40;99.90;;;;;;5003418;28;20049;-71
2024/03/13 07:16:28;;;;;;;19.33;3.78;;;10.40;99.90;;;;;;4983568;28;20045;-71
2024/03/13 07:18:58;;;;;;;17.73;3.65;;;10.40;99.90;;;;;;5005291;28;20037;-72
2024/03/13 07:21:24;;;;;;;26.88;4.80;;;10.40;99.90;;;;;;5004456;28;20041;-72
2024/03/13 07:23:49;;;;;;;18.70;4.22;;;10.40;99.90;;;;;;5003085;28;20030;-72
2024/03/13 07:26:15;;;;;;;24.60;3.42;;;10.40;99.90;;;;;;5001825;28;20072;-71
2024/03/13 07:28:40;;;;;;;17.27;2.90;;;10.50;99.90;;;;;;4985916;28;20060;-71
2024/03/13 07:31:07;;;;;;;21.25;3.97;;;10.50;99.90;;;;;;4986109;28;20031;-72
2024/03/13 07:33:33;;;;;;;23.45;4.40;;;10.50;99.90;;;;;;4989904;28;20038;-70
2024/03/13 07:35:59;;;;;;;21.52;4.53;;;10.50;99.90;;;;;;5005699;28;20068;-72
2024/03/13 07:38:24;;;;;;;16.17;3.97;;;10.50;99.90;;;;;;4989792;28;20038;-72
2024/03/13 07:40:50;;;;;;;21.27;3.15;;;10.50;99.90;;;;;;5005378;28;20053;-72
2024/03/13 07:43:16;;;;;;;15.40;3.13;;;10.50;99.90;;;;;;5006055;28;20065;-73
2024/03/13 07:45:41;;;;;;;17.38;3.88;;;10.60;99.90;;;;;;4984349;28;20121;-72
2024/03/13 07:48:10;;;;;;;12.43;3.20;;;10.60;99.90;;;;;;5002882;28;20031;-71
2024/03/13 07:50:38;;;;;;;19.17;3.78;;;10.60;99.90;;;;;;5006353;28;20033;-71
2024/03/13 07:53:08;;;;;;;14.75;3.75;;;10.60;99.90;;;;;;5002857;28;20061;-72
2024/03/13 07:55:34;;;;;;;27.75;4.32;;;10.60;99.90;;;;;;4992820;28;20056;-70
2024/03/13 07:58:03;;;;;;;21.30;3.72;;;10.60;99.90;;;;;;5004945;28;20095;-72
2024/03/13 08:00:29;;;;;;;19.38;4.63;;;10.60;99.90;;;;;;5003663;28;20542;-72
2024/03/13 08:02:57;;;;;;;16.48;3.53;;;10.60;99.90;;;;;;5006987;28;20045;-72
2024/03/13 08:05:23;;;;;;;20.40;4.57;;;10.60;99.90;;;;;;4986679;28;20035;-71
2024/03/13 08:07:49;;;;;;;23.92;4.47;;;10.60;99.90;;;;;;5000055;28;20658;-72
2024/03/13 08:10:18;;;;;;;21.48;4.78;;;10.60;99.90;;;;;;5006793;28;20117;-71
2024/03/13 08:12:45;;;;;;;23.65;5.07;;;10.60;99.90;;;;;;4984073;28;20474;-71
2024/03/13 08:15:11;;;;;;;28.65;6.85;;;10.70;99.90;;;;;;5006527;28;20026;-70
2024/03/13 08:17:38;;;;;;;23.45;6.25;;;10.70;99.90;;;;;;5003894;28;20046;-71
2024/03/13 08:20:04;;;;;;;24.33;5.85;;;10.70;99.90;;;;;;5003595;28;20030;-71
2024/03/13 08:22:30;;;;;;;22.17;5.65;;;10.70;99.90;;;;;;5007296;28;20033;-71
2024/03/13 08:24:56;;;;;;;26.27;5.93;;;10.70;99.90;;;;;;5004355;28;20033;-73
2024/03/13 08:27:21;;;;;;;26.60;6.47;;;10.70;99.90;;;;;;4985328;28;20045;-73
2024/03/13 08:29:47;;;;;;;26.63;5.93;;;10.80;99.90;;;;;;5006190;28;20022;-71
2024/03/13 08:32:12;;;;;;;27.27;6.90;;;10.80;99.90;;;;;;4987565;28;20022;-71
2024/03/13 08:34:38;;;;;;;20.90;7.15;;;10.90;99.90;;;;;;5003617;28;20068;-71
2024/03/13 08:37:04;;;;;;;23.17;6.20;;;10.90;99.90;;;;;;5005383;28;20029;-71
2024/03/13 08:39:30;;;;;;;23.13;5.93;;;10.90;99.90;;;;;;5002311;28;21025;-71
2024/03/13 08:41:55;;;;;;;20.20;6.60;;;10.90;99.90;;;;;;5004681;28;20573;-71
2024/03/13 08:44:21;;;;;;;19.27;5.85;;;11.00;99.90;;;;;;5006266;28;20049;-71
2024/03/13 08:46:48;;;;;;;17.52;5.03;;;11.00;99.90;;;;;;5004437;28;20088;-70
2024/03/13 08:49:17;;;;;;;20.63;5.88;;;11.00;99.90;;;;;;5005856;28;20049;-71
2024/03/13 08:51:43;;;;;;;23.42;5.40;;;11.00;99.90;;;;;;5003870;28;20034;-71
2024/03/13 08:54:11;;;;;;;26.00;6.45;;;11.00;99.90;;;;;;5003220;28;20111;-71
2024/03/13 08:56:38;;;;;;;21.95;6.63;;;11.00;99.90;;;;;;4987058;28;20617;-71
2024/03/13 08:59:04;;;;;;;19.27;5.15;;;11.00;99.90;;;;;;5004500;28;20034;-71
2024/03/13 09:01:50;;;;;;;17.77;5.05;;;11.10;99.90;;;;;;4989224;28;20048;-71
2024/03/13 09:04:17;;;;;;;22.23;4.25;;;11.10;99.90;;;;;;5006482;28;20038;-70
2024/03/13 09:06:43;;;;;;;18.60;4.78;;;11.10;99.90;;;;;;5007677;28;20034;-71
2024/03/13 09:09:09;;;;;;;15.40;4.50;;;11.20;99.90;;;;;;5006143;28;20041;-72
2024/03/13 09:11:34;;;;;;;25.13;5.25;;;11.20;99.90;;;;;;5009378;28;20045;-73
2024/03/13 09:14:03;;;;;;;16.15;4.35;;;11.20;99.90;;;;;;4987808;28;20049;-73
2024/03/13 09:16:31;;;;;;;17.70;2.58;;;11.20;99.90;;;;;;4985697;28;20041;-72
2024/03/13 09:19:00;;;;;;;19.20;3.53;;;11.30;99.90;;;;;;5008092;28;20502;-71
2024/03/13 09:21:26;;;;;;;14.68;3.60;;;11.30;99.90;;;;;;5004238;28;20045;-73
2024/03/13 09:23:52;;;;;;;12.45;2.50;;;11.40;99.90;;;;;;4985733;28;20036;-71
2024/03/13 09:26:18;;;;;;;17.88;3.35;;;11.40;99.90;;;;;;5008174;28;20494;-71
2024/03/13 09:28:47;;;;;;;16.27;3.92;;;11.40;99.90;;;;;;5007779;28;20038;-71
2024/03/13 09:31:13;;;;;;;11.85;2.60;;;11.40;99.90;;;;;;5006148;28;20061;-73
2024/03/13 09:33:38;;;;;;;8.48;2.72;;;11.40;99.90;;;;;;4985030;28;20050;-69
2024/03/13 09:36:12;;;;;;;14.57;2.45;;;11.40;99.90;;;;;;5008999;28;20419;-73
2024/03/13 09:38:38;;;;;;;19.27;2.83;;;11.40;99.90;;;;;;5008110;28;20042;-72
2024/03/13 09:41:06;;;;;;;16.88;2.78;;;11.40;99.90;;;;;;5004310;28;20034;-73
2024/03/13 09:43:32;;;;;;;12.05;2.47;;;11.40;99.90;;;;;;4986992;28;20107;-72
2024/03/13 09:45:59;;;;;;;10.02;1.92;;;11.40;99.90;;;;;;5006278;28;20124;-71
2024/03/13 09:48:25;;;;;;;11.32;2.45;;;11.30;99.90;;;;;;5003355;28;20048;-73
2024/03/13 09:50:55;;;;;;;14.75;2.83;;;11.30;99.90;;;;;;5000502;28;20033;-69
2024/03/13 09:53:22;;;;;;;18.35;1.95;;;11.30;99.90;;;;;;5000356;28;20034;-72
2024/03/13 09:55:48;;;;;;;10.05;2.63;;;11.30;99.90;;;;;;4999779;28;20052;-71
2024/03/13 09:58:15;;;;;;;8.27;2.22;;;11.30;99.90;;;;;;4998931;28;20077;-72
2024/03/13 10:00:41;;;;;;;11.55;2.65;;;11.30;99.90;;;;;;4982997;28;20514;-71
2024/03/13 10:03:21;;;;;;;13.15;2.80;;;11.30;99.90;;;;;;5000920;28;20026;-72
2024/03/13 10:05:49;;;;;;;8.57;3.40;;;11.40;99.90;;;;;;4981557;28;20569;-72
2024/03/13 10:08:18;;;;;;;11.52;2.80;;;11.40;99.90;;;;;;4981289;28;20280;-72
2024/03/13 10:10:45;;;;;;;13.27;2.30;;;11.50;99.90;;;;;;4984370;28;20038;-70
2024/03/13 10:13:12;;;;;;;9.95;3.10;;;11.60;99.90;;;;;;5005303;28;20030;-69
2024/03/13 10:15:38;;;;;;;13.68;2.92;;;11.60;99.90;;;;;;5000806;28;20054;-73
2024/03/13 10:18:15;;;;;;;10.52;2.33;;;11.70;99.90;;;;;;5009425;28;20053;-71
2024/03/13 10:21:01;;;;;;;10.20;2.72;;;11.80;99.90;;;;;;4998849;28;20050;-72
2024/03/13 10:23:29;;;;;;;13.50;2.53;;;11.90;99.90;;;;;;4999784;28;20045;-71
2024/03/13 10:25:59;;;;;;;16.77;2.67;;;11.90;99.90;;;;;;4991368;28;20034;-71
2024/03/13 10:28:26;;;;;;;9.80;2.83;;;11.90;99.90;;;;;;4987322;28;20142;-71
2024/03/13 10:30:53;;;;;;;12.90;3.05;;;11.90;99.90;;;;;;4997078;28;20038;-69
2024/03/13 10:33:19;;;;;;;13.52;3.75;;;11.90;99.90;;;;;;4997989;28;20057;-72
2024/03/13 10:35:45;;;;;;;12.75;2.65;;;11.90;99.90;;;;;;5001580;28;20057;-70
2024/03/13 10:38:14;;;;;;;5.68;1.63;;;11.90;99.90;;;;;;4991098;28;20042;-71
2024/03/13 10:40:41;;;;;;;15.23;2.80;;;11.90;99.90;;;;;;5004253;28;20030;-71
2024/03/13 10:43:10;;;;;;;13.80;3.10;;;11.80;99.90;;;;;;4997359;28;20035;-73
2024/03/13 10:45:36;;;;;;;7.93;2.30;;;11.80;99.90;;;;;;4985670;28;20057;-71
2024/03/13 10:48:03;;;;;;;8.70;2.67;;;11.90;99.90;;;;;;4983024;28;20037;-73
2024/03/13 10:50:30;;;;;;;14.32;2.53;;;11.80;99.90;;;;;;5001089;28;20040;-72
2024/03/13 10:52:56;;;;;;;8.57;2.33;;;11.90;99.90;;;;;;4991398;28;20049;-72
2024/03/13 10:55:25;;;;;;;6.97;2.33;;;11.90;99.90;;;;;;5000104;28;20103;-74
2024/03/13 10:57:51;;;;;;;14.40;2.08;;;11.90;99.90;;;;;;4980468;28;20044;-70
2024/03/13 11:00:21;;;;;;;8.57;1.88;;;12.00;99.90;;;;;;4998142;28;20042;-72
2024/03/13 11:02:49;;;;;;;17.23;2.92;;;12.00;99.90;;;;;;5003246;28;20035;-71
2024/03/13 11:05:16;;;;;;;9.05;1.88;;;12.10;99.90;;;;;;4984804;28;20025;-71
2024/03/13 11:07:42;;;;;;;14.27;1.25;;;12.10;99.90;;;;;;4983922;28;20045;-71
2024/03/13 11:10:21;;;;;;;11.60;3.15;;;12.10;99.90;;;;;;5002004;28;20557;-72
2024/03/13 11:12:48;;;;;;;9.75;1.90;;;12.10;99.90;;;;;;4982490;28;20049;-70
2024/03/13 11:15:24;;;;;;;6.05;1.38;;;12.10;99.90;;;;;;5005386;28;20395;-72
2024/03/13 11:17:56;;;;;;;6.07;1.30;;;12.10;99.90;;;;;;5003214;28;20034;-71
2024/03/13 11:20:25;;;;;;;7.28;1.30;;;12.00;99.90;;;;;;4999091;28;20026;-71
2024/03/13 11:22:58;;;;;;;15.80;2.25;;;12.10;99.90;;;;;;5002144;28;21012;-71
2024/03/13 11:25:25;;;;;;;7.65;1.70;;;12.10;99.90;;;;;;5005888;28;20400;-71
2024/03/13 11:27:56;;;;;;;10.35;1.90;;;12.00;99.90;;;;;;5008229;28;20030;-71
2024/03/13 11:30:24;;;;;;;9.52;1.48;;;12.10;99.90;;;;;;5001477;28;20108;-68
2024/03/13 11:32:51;;;;;;;5.82;1.40;;;12.20;99.90;;;;;;5002442;28;20630;-71
2024/03/13 11:35:18;;;;;;;5.82;1.33;;;12.20;99.90;;;;;;5001219;28;20499;-72
2024/03/13 11:37:47;;;;;;;8.98;1.60;;;12.20;99.90;;;;;;5003360;28;20117;-72
2024/03/13 11:40:15;;;;;;;7.55;2.47;;;12.20;99.90;;;;;;5005410;28;20030;-72
2024/03/13 11:42:43;;;;;;;5.60;1.00;;;12.20;99.90;;;;;;4988485;28;20054;-71
2024/03/13 11:45:18;;;;;;;8.80;1.98;;;12.20;99.90;;;;;;5007305;28;20038;-72
2024/03/13 11:47:55;;;;;;;4.03;0.88;;;12.20;99.90;;;;;;5002204;28;20530;-70
2024/03/13 11:50:21;;;;;;;4.93;0.70;;;12.30;99.90;;;;;;4985325;28;20030;-71
2024/03/13 11:53:06;;;;;;;5.35;0.70;;;12.40;99.90;;;;;;5006978;28;20038;-72
2024/03/13 11:55:34;;;;;;;4.35;1.10;;;12.40;99.90;;;;;;5005064;28;20603;-71
2024/03/13 11:58:21;;;;;;;4.05;0.85;;;12.40;99.90;;;;;;5006368;28;20061;-72
2024/03/13 12:00:47;;;;;;;2.42;0.90;;;12.40;99.90;;;;;;5002522;28;20042;-72
2024/03/13 12:03:15;;;;;;;1.90;0.82;;;12.30;99.90;;;;;;5003430;28;20049;-73
2024/03/13 12:05:41;;;;;;;7.10;1.10;;;12.20;99.90;;;;;;5000549;28;20042;-71
2024/03/13 12:08:14;;;;;;;4.80;1.20;;;12.20;99.90;;;;;;5003698;28;20108;-72
2024/03/13 12:10:40;;;;;;;5.60;1.45;;;12.20;99.90;;;;;;5006906;28;20034;-72
2024/03/13 12:13:13;;;;;;;5.65;1.02;;;12.20;99.90;;;;;;4991538;28;20040;-71
2024/03/13 12:15:41;;;;;;;6.32;1.20;;;12.30;99.90;;;;;;4984438;28;20122;-71
2024/03/13 12:18:11;;;;;;;3.38;0.80;;;12.20;99.90;;;;;;4991691;28;20030;-70
2024/03/13 12:20:39;;;;;;;5.15;1.27;;;12.20;99.90;;;;;;5010446;28;20609;-71
2024/03/13 12:23:06;;;;;;;4.93;1.60;;;12.30;99.90;;;;;;5010452;28;20030;-73
2024/03/13 12:25:35;;;;;;;4.75;1.25;;;12.20;99.90;;;;;;5004066;28;21179;-73
2024/03/13 12:28:01;;;;;;;5.60;0.88;;;12.30;99.90;;;;;;5006907;28;20038;-70
2024/03/13 12:30:37;;;;;;;10.32;2.08;;;12.20;99.90;;;;;;5004177;28;20048;-74
2024/03/13 12:33:05;;;;;;;8.93;1.05;;;12.20;99.90;;;;;;4988321;28;20041;-72
2024/03/13 12:35:33;;;;;;;4.85;0.88;;;12.20;99.90;;;;;;4990826;28;20037;-72
2024/03/13 12:37:58;;;;;;;5.70;0.85;;;12.20;99.90;;;;;;5000321;28;20034;-73
2024/03/13 12:40:25;;;;;;;2.55;0.57;;;12.30;99.90;;;;;;4989781;28;20049;-73
2024/03/13 12:42:51;;;;;;;4.78;0.63;;;12.30;99.90;;;;;;4991212;28;20026;-72
2024/03/13 12:45:16;;;;;;;3.17;0.50;;;12.30;99.90;;;;;;4991125;28;20164;-72
2024/03/13 12:47:42;;;;;;;4.28;1.30;;;12.30;99.90;;;;;;5004133;28;20034;-72
2024/03/13 12:50:14;;;;;;;1.85;0.60;;;12.20;99.90;;;;;;5005374;28;20740;-72
2024/03/13 12:52:40;;;;;;;1.88;0.50;;;12.20;99.90;;;;;;5004523;28;20073;-72
2024/03/13 12:55:10;;;;;;;1.73;0.73;;;12.20;99.90;;;;;;5006632;28;20402;-70
2024/03/13 12:57:38;;;;;;;2.53;0.30;;;12.20;99.90;;;;;;5003165;28;20227;-73
2024/03/13 13:00:31;;;;;;;2.30;0.43;;;12.20;99.90;;;;;;5015029;28;20533;-72